Time;durP1;ratioP1;P1;durP2;ratioP2;P2;SDS_P1;SDS_P2;PMS_P1;PMS_P2;Temp;Humidity;BMP_temperature;BMP_pressure;BME280_temperature;BME280_humidity;BME280_pressure;Samples;Min_cycle;Max_cycle;Signal;HPM_P1;HPM_P2
2022/06/11 00:01:27;;;;;;;5.00;1.30;;;;;;;21.12;67.54;100322.53;5010327;28;20037;-87
2022/06/11 00:03:57;;;;;;;3.25;1.30;;;;;;;21.13;66.69;100326.94;5010972;28;20488;-86
2022/06/11 00:06:23;;;;;;;3.00;1.20;;;;;;;21.14;67.45;100330.47;5011165;28;20026;-88
2022/06/11 00:08:52;;;;;;;4.25;1.30;;;;;;;21.13;67.24;100331.53;4994899;28;20032;-89
2022/06/11 00:11:18;;;;;;;3.30;1.33;;;;;;;21.10;66.82;100337.34;5028602;28;20084;-86
2022/06/11 00:13:44;;;;;;;2.83;1.10;;;;;;;21.10;66.84;100331.91;5014392;28;20432;-89
2022/06/11 00:16:10;;;;;;;2.15;1.02;;;;;;;21.10;67.42;100334.63;5010809;28;20087;-89
2022/06/11 00:18:37;;;;;;;4.18;1.23;;;;;;;21.07;66.54;100335.88;5028577;28;20656;-84
2022/06/11 00:21:03;;;;;;;2.25;1.30;;;;;;;21.07;67.02;100335.88;5010048;28;20026;-83
2022/06/11 00:23:28;;;;;;;3.72;1.40;;;;;;;21.05;66.56;100327.91;5009592;28;20045;-84
2022/06/11 00:25:54;;;;;;;3.05;1.30;;;;;;;21.06;67.50;100335.03;5010406;28;20029;-83
2022/06/11 00:28:19;;;;;;;3.55;1.30;;;;;;;21.04;66.56;100328.94;4994983;28;20561;-86
2022/06/11 00:30:45;;;;;;;3.55;1.52;;;;;;;21.04;66.92;100334.38;5010193;28;20053;-84
2022/06/11 00:33:11;;;;;;;3.97;1.65;;;;;;;21.03;67.20;100338.16;4993740;28;20061;-84
2022/06/11 00:35:37;;;;;;;3.10;1.20;;;;;;;21.02;67.28;100336.47;4993767;28;20029;-85
2022/06/11 00:38:04;;;;;;;2.80;1.50;;;;;;;21.00;67.68;100332.25;4994775;28;20179;-85
2022/06/11 00:40:31;;;;;;;3.03;1.63;;;;;;;20.98;67.96;100331.63;4994426;28;20028;-83
2022/06/11 00:42:56;;;;;;;2.80;1.40;;;;;;;20.98;67.19;100334.34;5023858;28;20034;-87
2022/06/11 00:45:35;;;;;;;2.28;1.30;;;;;;;20.96;68.18;100336.41;4993926;28;20033;-84
2022/06/11 00:48:05;;;;;;;;;;;;;;;20.97;67.60;100335.38;4994801;28;20026;-85
2022/06/11 00:50:39;;;;;;;3.10;1.30;;;;;;;20.96;68.21;100339.13;5013757;28;19917;-87
2022/06/11 00:53:15;;;;;;;2.53;1.35;;;;;;;20.94;68.48;100335.78;5013192;28;20025;-84
2022/06/11 00:55:42;;;;;;;3.25;1.38;;;;;;;20.96;68.03;100333.69;4997379;28;20059;-84
2022/06/11 00:58:12;;;;;;;2.17;1.02;;;;;;;20.96;68.14;100334.53;4997876;28;20486;-88
2022/06/11 01:00:42;;;;;;;4.50;1.33;;;;;;;20.94;68.70;100339.34;5013755;28;20108;-87
2022/06/11 01:03:10;;;;;;;2.45;1.17;;;;;;;20.94;68.40;100331.16;5013454;28;20056;-88
2022/06/11 01:05:38;;;;;;;2.67;1.30;;;;;;;20.93;67.91;100336.81;5013071;28;20080;-88
2022/06/11 01:08:19;;;;;;;3.58;1.40;;;;;;;20.89;67.98;100333.63;5014179;28;20037;-88
2022/06/11 01:10:58;;;;;;;2.90;1.30;;;;;;;20.89;68.31;100330.91;5014098;28;20382;-86
2022/06/11 01:13:52;;;;;;;3.55;1.40;;;;;;;20.90;68.47;100324.44;4994712;28;20033;-85
2022/06/11 01:16:34;;;;;;;1.98;1.30;;;;;;;20.88;68.50;100322.97;5013511;28;20032;-89
2022/06/11 01:19:26;;;;;;;2.80;1.35;;;;;;;20.83;68.37;100322.72;4996515;28;20038;-88
2022/06/11 01:21:58;;;;;;;1.73;1.17;;;;;;;20.79;68.76;100310.50;5012603;28;20415;-85
2022/06/11 01:24:48;;;;;;;2.92;1.38;;;;;;;20.74;69.52;100319.25;5029955;28;20036;-88
2022/06/11 01:27:43;;;;;;;2.72;1.77;;;;;;;20.71;68.31;100323.19;4996824;28;20487;-87
2022/06/11 01:30:27;;;;;;;3.70;1.60;;;;;;;20.69;69.18;100325.28;5029630;28;20135;-85
2022/06/11 01:33:07;;;;;;;2.13;1.60;;;;;;;20.65;68.89;100321.25;5012779;28;20644;-88
2022/06/11 01:35:35;;;;;;;3.63;1.50;;;;;;;20.64;69.31;100318.75;5013430;28;20034;-86
2022/06/11 01:38:06;;;;;;;5.95;1.60;;;;;;;20.59;69.54;100316.59;5029825;28;20051;-88
2022/06/11 01:40:56;;;;;;;1.98;1.33;;;;;;;20.57;70.08;100317.84;4996623;28;20029;-84
2022/06/11 01:43:24;;;;;;;3.17;1.30;;;;;;;20.54;69.87;100321.78;4996475;28;20479;-85
2022/06/11 01:45:51;;;;;;;2.45;1.63;;;;;;;20.50;70.25;100319.66;5012658;28;20038;-88
2022/06/11 01:48:19;;;;;;;2.95;1.40;;;;;;;20.45;70.05;100317.50;5013486;28;20029;-83
2022/06/11 01:50:51;;;;;;;5.93;1.55;;;;;;;20.43;70.41;100317.72;4996669;28;20033;-88
2022/06/11 01:53:26;;;;;;;2.67;1.45;;;;;;;20.39;69.58;100318.25;4995856;28;20033;-82
2022/06/11 01:56:10;;;;;;;4.60;1.70;;;;;;;20.38;69.49;100324.72;5012055;28;20435;-83
2022/06/11 01:59:12;;;;;;;2.95;1.73;;;;;;;20.36;70.02;100313.22;5013026;28;20025;-83
2022/06/11 02:02:10;;;;;;;3.03;1.92;;;;;;;20.34;69.62;100324.28;5011978;28;20048;-83
2022/06/11 02:04:52;;;;;;;2.75;1.60;;;;;;;20.32;70.59;100329.03;4995896;28;20521;-89
2022/06/11 02:07:32;;;;;;;2.35;1.45;;;;;;;20.30;69.92;100332.97;5011541;28;20033;-84
2022/06/11 02:10:09;;;;;;;2.95;1.70;;;;;;;20.26;70.08;100328.94;5013010;28;20021;-84
2022/06/11 02:12:37;;;;;;;3.13;1.60;;;;;;;20.24;70.24;100331.84;5028172;28;20103;-83
2022/06/11 02:15:27;;;;;;;5.63;3.05;;;;;;;20.24;71.06;100329.16;5011656;28;20029;-88
2022/06/11 02:17:56;;;;;;;6.53;3.00;;;;;;;20.24;70.67;100323.72;5011324;28;20089;-88
2022/06/11 02:20:32;;;;;;;6.93;2.95;;;;;;;20.21;70.10;100324.09;5012343;28;20026;-84
2022/06/11 02:23:13;;;;;;;4.68;2.60;;;;;;;20.19;71.02;100330.75;4994400;28;20120;-89
2022/06/11 02:25:43;;;;;;;4.50;2.60;;;;;;;20.18;70.72;100321.75;5027020;28;20034;-84
2022/06/11 02:28:16;;;;;;;5.32;2.30;;;;;;;20.18;70.67;100329.06;5012011;28;20013;-85
2022/06/11 02:30:44;;;;;;;2.80;1.80;;;;;;;20.22;70.14;100331.22;5030862;28;20572;-83
2022/06/11 02:33:11;;;;;;;2.92;1.77;;;;;;;20.19;70.78;100330.75;4996203;28;20030;-83
2022/06/11 02:35:39;;;;;;;2.85;1.60;;;;;;;20.18;70.19;100320.91;4995304;28;20033;-83
2022/06/11 02:38:10;;;;;;;4.25;1.70;;;;;;;20.17;70.52;100328.22;4995775;28;20029;-88
2022/06/11 02:40:43;;;;;;;2.13;1.50;;;;;;;20.14;70.63;100328.59;5011626;28;20127;-86
2022/06/11 02:43:08;;;;;;;3.60;1.70;;;;;;;20.13;70.96;100319.63;4991823;28;20026;-85
2022/06/11 02:45:34;;;;;;;2.65;1.52;;;;;;;20.11;70.60;100329.84;4994547;28;20024;-84
2022/06/11 02:47:59;;;;;;;2.90;1.55;;;;;;;20.09;70.62;100325.63;4994523;28;20036;-84
2022/06/11 02:50:30;;;;;;;3.42;1.80;;;;;;;20.06;70.54;100334.16;4995414;28;20029;-85
2022/06/11 02:52:56;;;;;;;3.05;1.60;;;;;;;20.01;70.35;100333.88;5010921;28;20078;-85
2022/06/11 02:55:22;;;;;;;4.07;1.80;;;;;;;19.97;70.08;100333.44;5011774;28;20498;-87
2022/06/11 02:57:47;;;;;;;6.05;1.80;;;;;;;19.95;70.91;100337.38;4994568;28;20110;-83
2022/06/11 03:00:16;;;;;;;2.38;1.60;;;;;;;19.91;70.85;100338.78;5027501;28;20527;-83
2022/06/11 03:02:45;;;;;;;2.50;1.48;;;;;;;19.91;70.67;100333.34;5026409;28;20217;-88
2022/06/11 03:05:11;;;;;;;4.75;1.80;;;;;;;19.91;70.08;100331.47;4995805;28;20033;-87
2022/06/11 03:07:37;;;;;;;2.17;1.38;;;;;;;19.90;70.39;100337.09;4995232;28;20086;-87
2022/06/11 03:10:03;;;;;;;2.85;1.58;;;;;;;19.91;71.00;100341.50;4995060;28;20037;-84
2022/06/11 03:12:29;;;;;;;2.42;1.67;;;;;;;19.91;71.06;100336.06;5011050;28;20025;-89
2022/06/11 03:14:54;;;;;;;2.00;1.60;;;;;;;19.91;70.69;100331.47;4995548;28;20395;-88
2022/06/11 03:17:20;;;;;;;3.50;1.70;;;;;;;19.92;71.88;100341.28;4993826;28;20030;-86
2022/06/11 03:19:46;;;;;;;2.80;1.98;;;;;;;19.90;71.33;100345.22;4995195;28;20025;-88
2022/06/11 03:22:12;;;;;;;2.75;1.63;;;;;;;19.92;71.29;100349.44;4995266;28;20035;-89
2022/06/11 03:24:38;;;;;;;3.13;1.85;;;;;;;19.92;71.38;100349.44;5011387;28;20225;-88
2022/06/11 03:27:04;;;;;;;3.30;1.50;;;;;;;19.94;72.04;100349.25;4995501;28;20052;-87
2022/06/11 03:29:29;;;;;;;4.63;1.60;;;;;;;19.94;71.58;100343.81;5010805;28;20486;-88
2022/06/11 03:31:55;;;;;;;3.35;1.58;;;;;;;19.95;71.55;100350.94;5010740;28;20039;-89
2022/06/11 03:34:20;;;;;;;3.53;1.67;;;;;;;19.93;71.90;100342.97;4995562;28;20034;-87
2022/06/11 03:36:47;;;;;;;5.40;1.70;;;;;;;19.93;72.28;100347.56;4994482;28;20032;-88
2022/06/11 03:39:14;;;;;;;2.80;1.45;;;;;;;19.92;72.15;100343.16;5011524;28;20085;-88
2022/06/11 03:41:39;;;;;;;4.53;1.90;;;;;;;19.93;72.12;100345.69;5027133;28;20083;-89
2022/06/11 03:44:05;;;;;;;3.58;1.60;;;;;;;19.92;72.17;100344.00;5011232;28;20029;-87
2022/06/11 03:46:30;;;;;;;2.55;1.60;;;;;;;19.93;71.49;100347.56;5010313;28;20057;-89
2022/06/11 03:48:56;;;;;;;2.97;1.65;;;;;;;19.92;71.86;100351.31;5011172;28;20060;-89
2022/06/11 03:51:22;;;;;;;2.08;1.70;;;;;;;19.89;72.33;100355.25;4994320;28;20060;-89
2022/06/11 03:53:47;;;;;;;2.25;1.40;;;;;;;19.87;72.27;100346.44;4994780;28;20112;-88
2022/06/11 03:56:14;;;;;;;2.75;1.70;;;;;;;19.88;72.81;100355.44;5010494;28;20049;-89
2022/06/11 03:58:40;;;;;;;4.05;1.70;;;;;;;19.90;72.80;100356.94;5011345;28;20464;-88
2022/06/11 04:01:16;;;;;;;2.55;1.60;;;;;;;19.89;72.21;100355.25;4993862;28;20033;-88
2022/06/11 04:03:48;;;;;;;3.22;1.75;;;;;;;19.88;72.51;100352.72;5012230;28;20491;-87
2022/06/11 04:06:16;;;;;;;2.42;1.63;;;;;;;19.88;72.37;100352.72;5009666;28;20029;-90
2022/06/11 04:08:41;;;;;;;3.38;1.73;;;;;;;19.87;72.84;100361.91;5010461;28;20037;-86
2022/06/11 04:11:07;;;;;;;2.42;1.58;;;;;;;19.86;72.44;100361.03;4994294;28;20022;-89
2022/06/11 04:13:35;;;;;;;4.40;1.95;;;;;;;19.87;73.03;100365.47;4994790;28;20029;-88
2022/06/11 04:16:01;;;;;;;1.92;1.50;;;;;;;19.88;72.88;100366.28;4993455;28;20091;-89
2022/06/11 04:18:31;;;;;;;2.25;1.60;;;;;;;19.88;72.98;100369.00;4994631;28;20116;-88
2022/06/11 04:20:57;;;;;;;3.22;1.60;;;;;;;19.76;73.16;100371.31;5009726;28;20033;-90
2022/06/11 04:23:24;;;;;;;3.55;1.48;;;;;;;19.72;74.19;100375.44;5013413;28;20183;-89
2022/06/11 04:25:51;;;;;;;3.10;1.77;;;;;;;19.80;73.73;100384.34;4998132;28;20607;-88
2022/06/11 04:28:16;;;;;;;3.90;1.90;;;;;;;19.77;74.06;100373.84;5013897;28;20030;-89
2022/06/11 04:30:42;;;;;;;4.03;1.75;;;;;;;19.83;73.36;100376.84;5015648;28;20076;-88
2022/06/11 04:33:07;;;;;;;2.78;1.90;;;;;;;19.86;73.14;100377.31;4998890;28;20029;-89
2022/06/11 04:35:32;;;;;;;2.40;1.65;;;;;;;19.89;73.26;100373.41;4998019;28;20029;-87
2022/06/11 04:37:58;;;;;;;2.25;1.50;;;;;;;19.89;73.66;100376.97;5014314;28;20022;-89
2022/06/11 04:40:23;;;;;;;3.30;2.20;;;;;;;19.86;74.25;100371.03;4998310;28;20164;-89
2022/06/11 04:42:49;;;;;;;3.22;1.85;;;;;;;19.90;74.05;100366.94;4998387;28;20463;-87
2022/06/11 04:45:16;;;;;;;2.55;1.70;;;;;;;19.93;74.22;100378.28;4998390;28;20037;-87
2022/06/11 04:47:42;;;;;;;5.07;1.90;;;;;;;19.97;73.86;100371.44;4998669;28;20494;-89
2022/06/11 04:50:08;;;;;;;3.15;1.75;;;;;;;19.97;73.67;100376.88;5014681;28;20017;-88
2022/06/11 04:52:34;;;;;;;3.28;1.40;;;;;;;19.96;73.72;100382.50;4997292;28;20037;-89
2022/06/11 04:54:59;;;;;;;2.33;1.50;;;;;;;19.95;74.26;100383.50;4996993;28;20033;-88
2022/06/11 04:57:24;;;;;;;2.50;1.88;;;;;;;19.89;74.11;100382.41;5011153;28;20076;-89
2022/06/11 04:59:50;;;;;;;3.25;1.55;;;;;;;19.85;74.53;100382.94;5014436;28;20040;-88
2022/06/11 05:02:15;;;;;;;3.40;1.67;;;;;;;19.90;74.54;100385.97;4996976;28;20116;-88
2022/06/11 05:04:41;;;;;;;3.05;2.08;;;;;;;19.91;74.19;100385.78;4997918;28;20030;-89
2022/06/11 05:07:06;;;;;;;3.13;1.90;;;;;;;19.94;74.56;100388.09;4997287;28;20021;-88
2022/06/11 05:09:33;;;;;;;3.45;1.92;;;;;;;19.96;74.57;100390.63;4997423;28;20049;-88
2022/06/11 05:11:59;;;;;;;4.70;1.90;;;;;;;19.89;74.71;100384.28;4997454;28;20247;-88
2022/06/11 05:14:24;;;;;;;3.53;1.77;;;;;;;19.89;74.72;100398.69;4998041;28;20441;-89
2022/06/11 05:16:50;;;;;;;2.65;1.83;;;;;;;19.89;74.74;100382.41;5013829;28;20033;-88
2022/06/11 05:19:18;;;;;;;3.42;1.73;;;;;;;19.93;74.80;100389.13;4997602;28;20021;-89
2022/06/11 05:21:44;;;;;;;3.33;1.90;;;;;;;19.98;75.13;100391.28;5012967;28;20130;-88
2022/06/11 05:24:10;;;;;;;4.32;1.88;;;;;;;19.94;75.16;100396.25;5013723;28;20052;-89
2022/06/11 05:26:43;;;;;;;2.95;1.50;;;;;;;19.99;74.75;100392.97;4996841;28;20026;-89
2022/06/11 05:29:11;;;;;;;3.63;1.83;;;;;;;19.95;74.70;100394.38;5013725;28;20037;-89
2022/06/11 05:31:37;;;;;;;;;;;;;;;19.95;74.34;100399.81;4995724;28;20033;-88
2022/06/11 05:34:02;;;;;;;3.60;2.25;;;;;;;19.98;74.97;100397.56;5013133;28;19928;-87
2022/06/11 05:36:28;;;;;;;2.60;1.77;;;;;;;20.00;74.81;100392.78;5012988;28;20022;-89
2022/06/11 05:38:53;;;;;;;2.58;1.95;;;;;;;20.01;74.58;100388.19;4996673;28;20055;-88
2022/06/11 05:41:18;;;;;;;3.13;2.05;;;;;;;19.98;73.95;100392.13;4996570;28;20091;-88
2022/06/11 05:43:45;;;;;;;3.70;1.73;;;;;;;20.00;74.65;100400.94;5013590;28;20121;-89
2022/06/11 05:46:15;;;;;;;2.55;1.50;;;;;;;20.04;74.56;100390.53;5013391;28;20475;-87
2022/06/11 05:48:45;;;;;;;2.92;1.80;;;;;;;20.09;74.98;100388.94;5013178;28;20120;-89
2022/06/11 05:51:17;;;;;;;2.50;1.65;;;;;;;20.12;74.20;100388.56;5012870;28;20025;-88
2022/06/11 05:53:43;;;;;;;3.08;2.05;;;;;;;20.14;74.43;100391.06;5029456;28;20037;-89
2022/06/11 05:56:08;;;;;;;1.90;1.50;;;;;;;20.21;74.52;100389.28;4996103;28;20065;-88
2022/06/11 05:58:42;;;;;;;3.35;1.65;;;;;;;20.24;74.03;100398.94;5000879;28;20030;-91
2022/06/11 06:01:08;;;;;;;2.25;1.55;;;;;;;20.24;73.93;100407.06;5012405;28;20029;-85
2022/06/11 06:03:33;;;;;;;3.67;2.10;;;;;;;20.25;74.93;100395.19;4995596;28;20021;-85
2022/06/11 06:05:59;;;;;;;3.65;1.92;;;;;;;20.27;74.62;100403.97;5011335;28;20074;-85
2022/06/11 06:08:24;;;;;;;1.90;1.70;;;;;;;20.27;74.14;100402.09;4995293;28;20067;-85
2022/06/11 06:10:49;;;;;;;3.13;1.90;;;;;;;20.29;74.71;100396.47;5011570;28;20023;-85
2022/06/11 06:15:59;;;;;;;2.58;1.60;;;;;;;20.31;74.87;100402.56;5014653;28;20044;-84
2022/06/11 06:18:24;;;;;;;2.60;1.58;;;;;;;20.31;74.55;100406.13;5011891;28;20018;-85
2022/06/11 06:20:50;;;;;;;2.72;1.70;;;;;;;20.33;74.62;100411.38;5011068;28;20525;-85
2022/06/11 06:23:15;;;;;;;2.47;1.70;;;;;;;20.36;74.01;100408.31;5011326;28;20032;-85
2022/06/11 06:25:41;;;;;;;3.45;2.00;;;;;;;20.34;74.69;100411.22;5011697;28;20047;-85
2022/06/11 06:28:06;;;;;;;3.25;1.70;;;;;;;20.36;73.86;100416.44;5011114;28;20068;-85
2022/06/11 06:30:32;;;;;;;2.97;1.60;;;;;;;20.39;74.18;100413.34;5011513;28;20151;-85
2022/06/11 06:32:57;;;;;;;3.55;1.90;;;;;;;20.39;73.96;100406.06;4995025;28;20025;-85
2022/06/11 06:35:22;;;;;;;2.95;1.73;;;;;;;20.38;73.50;100407.06;5011513;28;20032;-85
2022/06/11 06:37:48;;;;;;;2.10;1.48;;;;;;;20.40;74.24;100407.75;5011038;28;20028;-85
2022/06/11 06:40:13;;;;;;;2.28;1.48;;;;;;;20.42;73.41;100407.56;5011440;28;20428;-85
2022/06/11 06:42:38;;;;;;;1.77;1.40;;;;;;;20.46;73.81;100408.03;5011175;28;20542;-85
2022/06/11 06:45:04;;;;;;;2.35;1.60;;;;;;;20.45;74.03;100411.78;4994354;28;20185;-85
2022/06/11 06:47:30;;;;;;;2.38;1.55;;;;;;;20.42;73.34;100408.41;5010709;28;20033;-85
2022/06/11 06:49:55;;;;;;;2.20;1.70;;;;;;;20.43;73.91;100412.81;4995784;28;20048;-85
2022/06/11 06:52:21;;;;;;;2.33;1.42;;;;;;;20.48;73.83;100414.13;5029010;28;20026;-85
2022/06/11 06:54:46;;;;;;;2.63;1.70;;;;;;;20.47;73.80;100417.88;4994427;28;20053;-85
2022/06/11 06:57:12;;;;;;;2.33;1.65;;;;;;;20.47;73.72;100413.28;4995350;28;20403;-85
2022/06/11 06:59:37;;;;;;;3.67;1.88;;;;;;;20.41;73.78;100416.75;5011348;28;20781;-84
2022/06/11 07:02:03;;;;;;;3.90;1.85;;;;;;;20.40;74.27;100424.06;4994548;28;20041;-85
2022/06/11 07:04:28;;;;;;;2.35;1.60;;;;;;;20.42;74.57;100424.72;4994985;28;20036;-86
2022/06/11 07:06:54;;;;;;;3.10;1.70;;;;;;;20.44;74.23;100421.81;5005893;28;20609;-86
2022/06/11 07:09:19;;;;;;;2.15;1.50;;;;;;;20.48;74.69;100422.25;4993394;28;20103;-86
2022/06/11 07:11:45;;;;;;;2.47;1.73;;;;;;;20.48;74.25;100422.25;5010558;28;20040;-86
2022/06/11 07:14:10;;;;;;;1.65;1.25;;;;;;;20.49;74.37;100422.06;4994182;28;20033;-86
2022/06/11 07:16:39;;;;;;;5.22;1.90;;;;;;;20.45;73.54;100423.50;4993871;28;20045;-86
2022/06/11 07:19:10;;;;;;;2.67;1.90;;;;;;;20.41;74.16;100425.75;5009765;28;20041;-85
2022/06/11 07:21:38;;;;;;;4.00;1.98;;;;;;;20.40;74.48;100420.50;4994607;28;20096;-85
2022/06/11 07:26:50;;;;;;;2.50;1.83;;;;;;;20.43;74.12;100431.84;5215199;23;20045;-85
2022/06/11 07:29:16;;;;;;;3.35;1.75;;;;;;;20.52;74.53;100431.72;5048580;28;21029;-84
2022/06/11 07:31:44;;;;;;;2.50;1.70;;;;;;;20.59;74.18;100430.75;5056972;28;20110;-84
2022/06/11 07:34:11;;;;;;;3.25;2.60;;;;;;;20.62;74.35;100429.53;5054226;28;20021;-84
2022/06/11 07:36:37;;;;;;;3.40;2.75;;;;;;;20.58;74.45;100436.38;5034934;28;20406;-84
2022/06/11 07:39:02;;;;;;;3.75;2.28;;;;;;;20.59;74.66;100430.75;5049361;28;20021;-84
2022/06/11 07:41:28;;;;;;;4.00;2.72;;;;;;;20.59;74.27;100432.63;5051519;28;20023;-84
2022/06/11 07:43:53;;;;;;;6.93;2.92;;;;;;;20.58;73.85;100434.50;5056054;28;20031;-84
2022/06/11 07:46:18;;;;;;;3.92;2.70;;;;;;;20.61;73.87;100442.28;5058176;28;20031;-84
2022/06/11 07:48:44;;;;;;;3.53;2.35;;;;;;;20.56;73.80;100439.28;5057391;28;20043;-85
2022/06/11 07:51:10;;;;;;;5.78;2.25;;;;;;;20.59;73.35;100444.34;5058484;28;20059;-85
2022/06/11 07:53:35;;;;;;;3.00;2.20;;;;;;;20.60;73.49;100437.03;5059680;28;20138;-84
2022/06/11 07:56:00;;;;;;;3.53;2.10;;;;;;;20.60;73.10;100445.19;5051482;28;20431;-84
2022/06/11 07:58:29;;;;;;;3.88;1.90;;;;;;;20.55;71.86;100455.78;5032116;28;20025;-84
2022/06/11 08:00:55;;;;;;;4.35;1.90;;;;;;;20.50;72.18;100450.09;5048403;28;20163;-85
2022/06/11 08:03:21;;;;;;;6.32;1.92;;;;;;;20.40;72.28;100453.94;5046427;28;20130;-83
2022/06/11 08:05:46;;;;;;;2.13;1.50;;;;;;;20.36;71.85;100451.78;5047478;28;20037;-84
2022/06/11 08:08:12;;;;;;;2.38;1.60;;;;;;;20.34;71.54;100459.28;5046120;28;20036;-83
2022/06/11 08:10:40;;;;;;;5.13;1.70;;;;;;;20.32;71.94;100450.44;5031592;28;20020;-84
2022/06/11 08:13:06;;;;;;;2.83;1.50;;;;;;;20.30;72.43;100449.78;5030971;28;20032;-84
2022/06/11 08:15:32;;;;;;;2.83;1.52;;;;;;;20.30;71.25;100455.22;5046967;28;20761;-84
2022/06/11 08:17:57;;;;;;;3.05;1.30;;;;;;;20.43;72.08;100458.16;5031596;28;20120;-85
2022/06/11 08:20:26;;;;;;;2.50;1.88;;;;;;;20.46;71.07;100457.78;5031894;28;20068;-83
2022/06/11 08:22:52;;;;;;;;;;;;;;;20.51;72.26;100457.22;5029842;28;20432;-84
2022/06/11 08:25:18;;;;;;;5.47;1.85;;;;;;;20.48;71.33;100455.72;5048605;28;19920;-84
2022/06/11 08:27:45;;;;;;;3.28;1.50;;;;;;;20.50;70.82;100456.38;5049314;28;20029;-84
2022/06/11 08:30:16;;;;;;;3.40;2.10;;;;;;;20.50;70.72;100450.09;5048113;28;20071;-84
2022/06/11 08:32:42;;;;;;;2.95;2.35;;;;;;;20.51;71.28;100452.63;5038007;28;20433;-83
2022/06/11 08:35:08;;;;;;;7.70;2.90;;;;;;;20.49;72.31;100449.25;5046666;28;20036;-84
2022/06/11 08:37:33;;;;;;;4.13;2.80;;;;;;;20.50;71.07;100450.94;5047179;28;20050;-84
2022/06/11 08:39:58;;;;;;;2.25;2.10;;;;;;;20.59;71.86;100451.66;5045636;28;20558;-84
2022/06/11 08:42:36;;;;;;;3.10;2.60;;;;;;;20.68;71.99;100448.63;5031405;28;20928;-85
2022/06/11 08:45:14;;;;;;;3.00;2.30;;;;;;;20.74;71.61;100449.75;5030689;28;20787;-85
2022/06/11 08:47:44;;;;;;;1.70;1.55;;;;;;;20.80;71.85;100457.13;5045623;28;20025;-85
2022/06/11 08:50:13;;;;;;;4.15;3.33;;;;;;;20.81;71.57;100447.09;5045504;28;20025;-84
2022/06/11 08:52:39;;;;;;;3.60;3.20;;;;;;;20.77;70.51;100452.06;5047594;28;20435;-85
2022/06/11 08:55:04;;;;;;;4.15;3.10;;;;;;;20.78;71.12;100445.59;5047156;28;20116;-85
2022/06/11 08:57:51;;;;;;;2.50;2.13;;;;;;;20.84;72.22;100447.59;5028717;28;20041;-85
2022/06/11 09:00:29;;;;;;;4.28;2.97;;;;;;;20.85;71.91;100443.81;5024207;28;20033;-85
2022/06/11 09:03:18;;;;;;;2.50;2.30;;;;;;;20.86;72.18;100442.78;5046063;28;20440;-85
2022/06/11 09:06:02;;;;;;;5.82;3.35;;;;;;;20.88;71.74;100439.88;5037967;28;20041;-85
2022/06/11 09:08:28;;;;;;;3.20;2.90;;;;;;;20.89;71.58;100439.69;5039263;28;20079;-85
2022/06/11 09:11:16;;;;;;;5.68;3.22;;;;;;;20.88;72.34;100442.59;5051600;28;20032;-85
2022/06/11 09:13:54;;;;;;;2.38;2.08;;;;;;;20.87;72.05;100440.91;5048352;28;20095;-85
2022/06/11 09:16:29;;;;;;;4.72;3.38;;;;;;;20.83;72.78;100445.91;5044936;28;20087;-85
2022/06/11 09:19:13;;;;;;;3.50;2.80;;;;;;;20.79;72.66;100444.56;5032728;28;20059;-84
2022/06/11 09:21:48;;;;;;;4.28;3.88;;;;;;;20.78;71.20;100439.31;5037133;28;20056;-84
2022/06/11 09:24:22;;;;;;;4.93;3.90;;;;;;;20.82;72.72;100438.78;5050919;28;20036;-84
2022/06/11 09:27:08;;;;;;;4.03;3.55;;;;;;;20.87;73.62;100443.63;5041432;28;20049;-84
2022/06/11 09:29:49;;;;;;;4.07;3.25;;;;;;;20.83;72.70;100435.03;5050838;28;20501;-83
2022/06/11 09:32:22;;;;;;;7.43;3.60;;;;;;;20.85;72.71;100445.72;5052134;28;20479;-84
2022/06/11 09:34:54;;;;;;;3.92;2.90;;;;;;;20.87;73.10;100446.34;5050412;28;20036;-84
2022/06/11 09:37:50;;;;;;;4.75;2.83;;;;;;;20.90;71.88;100444.09;5034032;28;20040;-84
2022/06/11 09:40:30;;;;;;;4.65;2.88;;;;;;;20.95;73.25;100446.22;5052325;28;20041;-85
2022/06/11 09:43:06;;;;;;;5.65;3.40;;;;;;;20.92;73.17;100452.91;5050632;28;20028;-84
2022/06/11 09:46:02;;;;;;;3.58;2.60;;;;;;;20.92;73.10;100446.63;5034302;28;20079;-84
2022/06/11 09:48:40;;;;;;;3.40;2.50;;;;;;;20.93;72.88;100451.88;5032893;28;20033;-85
2022/06/11 09:51:23;;;;;;;4.57;2.88;;;;;;;20.93;72.62;100445.59;5039656;28;20032;-83
2022/06/11 09:54:19;;;;;;;3.88;2.70;;;;;;;20.90;72.75;100454.13;5051541;28;20071;-85
2022/06/11 09:56:53;;;;;;;3.38;2.55;;;;;;;20.91;73.07;100453.09;5050063;28;20029;-87
2022/06/11 09:59:42;;;;;;;4.18;2.45;;;;;;;20.92;72.53;100452.91;5048746;28;20072;-87
2022/06/11 10:02:07;;;;;;;;;;;;;;;20.91;72.33;100447.66;5050355;28;20148;-85
2022/06/11 10:04:37;;;;;;;4.50;2.75;;;;;;;20.94;72.77;100460.88;5049845;28;20372;-86
2022/06/11 10:07:25;;;;;;;3.10;2.35;;;;;;;20.95;73.54;100460.66;5050419;28;20036;-85
2022/06/11 10:09:58;;;;;;;3.80;3.00;;;;;;;21.00;72.92;100460.09;5048250;28;20036;-86
2022/06/11 10:12:34;;;;;;;2.90;2.40;;;;;;;21.02;72.22;100461.56;5034525;28;20033;-84
2022/06/11 10:15:21;;;;;;;4.20;2.60;;;;;;;21.03;72.79;100460.53;5049919;28;20086;-85
2022/06/11 10:17:54;;;;;;;4.10;2.50;;;;;;;21.07;72.67;100461.00;5042269;28;20060;-85
2022/06/11 10:20:41;;;;;;;3.97;2.70;;;;;;;21.05;72.34;100453.03;5024984;28;20128;-87
2022/06/11 10:23:31;;;;;;;4.80;2.60;;;;;;;21.06;72.07;100456.59;5028644;28;20033;-84
2022/06/11 10:26:08;;;;;;;4.30;2.58;;;;;;;21.05;72.44;100453.03;5041782;28;20419;-87
2022/06/11 10:28:44;;;;;;;3.72;2.60;;;;;;;21.04;72.66;100464.09;5045482;28;20086;-86
2022/06/11 10:31:13;;;;;;;3.35;2.30;;;;;;;21.04;72.62;100455.94;5050330;28;20021;-84
2022/06/11 10:33:58;;;;;;;3.92;2.30;;;;;;;21.09;72.87;100450.75;5047653;28;20037;-85
2022/06/11 10:36:32;;;;;;;3.13;2.08;;;;;;;21.13;73.17;100453.94;5050026;28;20033;-87
2022/06/11 10:39:11;;;;;;;3.15;2.10;;;;;;;21.18;72.68;100460.47;5049114;28;20021;-85
2022/06/11 10:41:52;;;;;;;3.17;2.15;;;;;;;21.21;73.34;100456.53;5031594;28;20025;-84
2022/06/11 10:44:20;;;;;;;4.82;3.25;;;;;;;21.20;71.36;100469.28;5048253;28;20276;-84
2022/06/11 10:46:46;;;;;;;5.10;3.20;;;;;;;21.18;71.59;100456.91;5049782;28;20028;-85
2022/06/11 10:49:16;;;;;;;4.97;3.05;;;;;;;21.20;72.04;100461.13;5032913;28;20391;-84
2022/06/11 10:51:48;;;;;;;3.97;2.55;;;;;;;21.17;72.08;100455.22;5032526;28;20048;-84
2022/06/11 10:54:21;;;;;;;5.55;2.50;;;;;;;21.21;72.09;100454.66;5047926;28;20060;-84
2022/06/11 10:56:53;;;;;;;3.30;2.65;;;;;;;21.21;72.09;100457.38;5048157;28;20033;-85
2022/06/11 10:59:25;;;;;;;4.30;2.42;;;;;;;21.16;71.23;100459.00;5048715;28;20825;-86
2022/06/11 11:01:58;;;;;;;4.20;2.40;;;;;;;21.12;70.18;100446.81;5049745;28;20064;-85
2022/06/11 11:04:36;;;;;;;4.47;2.38;;;;;;;21.12;71.05;100447.66;5032423;28;20052;-85
2022/06/11 11:07:16;;;;;;;2.33;2.08;;;;;;;21.16;71.14;100448.94;5031926;28;20025;-85
2022/06/11 11:09:42;;;;;;;1.70;1.60;;;;;;;21.21;71.47;100456.53;5040381;28;20039;-84
2022/06/11 11:12:20;;;;;;;2.80;2.10;;;;;;;21.24;71.92;100448.00;5048509;28;20119;-84
2022/06/11 11:14:46;;;;;;;2.10;1.90;;;;;;;21.27;71.95;100447.59;5043958;28;20028;-73
2022/06/11 11:17:20;;;;;;;2.72;1.70;;;;;;;21.30;72.53;100441.81;5050961;28;20123;-90
2022/06/11 11:20:29;;;;;;;4.50;2.33;;;;;;;21.32;70.58;100445.19;5028092;28;20116;-95
2022/06/11 11:22:35;;;;;;;;;;;;;;;21.32;71.21;100445.19;5050735;28;20087;-90
2022/06/11 11:25:01;;;;;;;2.53;1.85;;;;;;;21.34;71.06;100441.22;5049406;28;20367;-90
2022/06/11 11:27:32;;;;;;;3.25;2.28;;;;;;;21.36;70.18;100441.88;5049470;28;20039;-87
2022/06/11 11:30:04;;;;;;;2.97;2.00;;;;;;;21.37;71.17;100442.69;5032881;28;20025;-89
2022/06/11 11:32:39;;;;;;;4.18;2.03;;;;;;;21.41;70.77;100451.31;5049095;28;20067;-91
2022/06/11 11:35:26;;;;;;;3.00;1.95;;;;;;;21.44;70.27;100445.47;5048797;28;20111;-91
2022/06/11 11:38:05;;;;;;;3.30;2.03;;;;;;;21.40;70.51;100442.31;5029628;28;20068;-87
2022/06/11 11:40:48;;;;;;;2.38;2.03;;;;;;;21.38;70.36;100441.66;5050552;28;20052;-87
2022/06/11 11:43:15;;;;;;;3.30;2.10;;;;;;;21.41;70.47;100435.00;5032783;28;20032;-88
2022/06/11 11:45:43;;;;;;;2.30;1.60;;;;;;;21.43;71.08;100441.06;5056354;28;20044;-86
2022/06/11 11:48:14;;;;;;;2.20;1.70;;;;;;;21.47;71.83;100434.19;5042502;28;20431;-88